sensor_id;sensor_type;location;lat;lon;timestamp;temperature;humidity
7427;DHT22;3755;59.316;18.092;2022-10-16T00:01:15;12.90;99.90
7427;DHT22;3755;59.316;18.092;2022-10-16T00:03:44;12.90;99.90
7427;DHT22;3755;59.316;18.092;2022-10-16T00:06:12;12.90;99.90
7427;DHT22;3755;59.316;18.092;2022-10-16T00:08:40;12.90;99.90
7427;DHT22;3755;59.316;18.092;2022-10-16T00:11:08;12.90;99.90
7427;DHT22;3755;59.316;18.092;2022-10-16T00:13:38;12.90;99.90
7427;DHT22;3755;59.316;18.092;2022-10-16T00:16:08;12.90;99.90
7427;DHT22;3755;59.316;18.092;2022-10-16T00:18:36;12.90;99.90
7427;DHT22;3755;59.316;18.092;2022-10-16T00:21:05;12.80;99.90
7427;DHT22;3755;59.316;18.092;2022-10-16T00:23:32;12.90;99.90
7427;DHT22;3755;59.316;18.092;2022-10-16T00:26:01;12.80;99.90
7427;DHT22;3755;59.316;18.092;2022-10-16T00:28:29;12.80;99.90
7427;DHT22;3755;59.316;18.092;2022-10-16T00:30:56;12.80;99.90
7427;DHT22;3755;59.316;18.092;2022-10-16T00:33:25;12.80;99.90
7427;DHT22;3755;59.316;18.092;2022-10-16T00:35:52;12.80;99.90
7427;DHT22;3755;59.316;18.092;2022-10-16T00:38:19;12.80;99.90
7427;DHT22;3755;59.316;18.092;2022-10-16T00:40:45;12.80;99.90
7427;DHT22;3755;59.316;18.092;2022-10-16T00:43:14;12.80;99.90
7427;DHT22;3755;59.316;18.092;2022-10-16T00:45:58;12.80;99.90
7427;DHT22;3755;59.316;18.092;2022-10-16T00:48:27;12.80;99.90
7427;DHT22;3755;59.316;18.092;2022-10-16T00:50:54;12.80;99.90
7427;DHT22;3755;59.316;18.092;2022-10-16T00:53:24;12.80;99.90
7427;DHT22;3755;59.316;18.092;2022-10-16T00:55:52;12.80;99.90
7427;DHT22;3755;59.316;18.092;2022-10-16T00:58:19;12.80;99.90
7427;DHT22;3755;59.316;18.092;2022-10-16T01:00:47;12.80;99.90
7427;DHT22;3755;59.316;18.092;2022-10-16T01:03:27;12.80;99.90
7427;DHT22;3755;59.316;18.092;2022-10-16T01:06:16;12.80;99.90
7427;DHT22;3755;59.316;18.092;2022-10-16T01:08:54;12.70;99.90
7427;DHT22;3755;59.316;18.092;2022-10-16T01:11:31;12.70;99.90
7427;DHT22;3755;59.316;18.092;2022-10-16T01:14:04;12.70;99.90
7427;DHT22;3755;59.316;18.092;2022-10-16T01:16:36;12.70;99.90
7427;DHT22;3755;59.316;18.092;2022-10-16T01:19:13;12.90;99.90
7427;DHT22;3755;59.316;18.092;2022-10-16T01:21:45;12.70;99.90
7427;DHT22;3755;59.316;18.092;2022-10-16T01:24:19;12.70;99.90
7427;DHT22;3755;59.316;18.092;2022-10-16T01:27:08;12.70;99.90
7427;DHT22;3755;59.316;18.092;2022-10-16T01:29:40;12.70;99.90
7427;DHT22;3755;59.316;18.092;2022-10-16T01:32:14;12.60;99.90
7427;DHT22;3755;59.316;18.092;2022-10-16T01:34:48;12.70;99.90
7427;DHT22;3755;59.316;18.092;2022-10-16T01:37:22;12.70;99.90
7427;DHT22;3755;59.316;18.092;2022-10-16T01:39:50;12.70;99.90
7427;DHT22;3755;59.316;18.092;2022-10-16T01:42:25;12.70;99.90
7427;DHT22;3755;59.316;18.092;2022-10-16T01:44:54;12.70;99.90
7427;DHT22;3755;59.316;18.092;2022-10-16T01:47:25;12.70;99.90
7427;DHT22;3755;59.316;18.092;2022-10-16T01:49:53;12.70;99.90
7427;DHT22;3755;59.316;18.092;2022-10-16T01:52:24;12.70;99.90
7427;DHT22;3755;59.316;18.092;2022-10-16T01:54:54;12.70;99.90
7427;DHT22;3755;59.316;18.092;2022-10-16T01:57:25;12.70;99.90
7427;DHT22;3755;59.316;18.092;2022-10-16T01:59:58;12.70;99.90
7427;DHT22;3755;59.316;18.092;2022-10-16T02:02:28;12.70;99.90
7427;DHT22;3755;59.316;18.092;2022-10-16T02:05:03;12.60;99.90
7427;DHT22;3755;59.316;18.092;2022-10-16T02:07:31;12.60;99.90
7427;DHT22;3755;59.316;18.092;2022-10-16T02:09:59;12.60;99.90
7427;DHT22;3755;59.316;18.092;2022-10-16T02:12:30;12.60;99.90
7427;DHT22;3755;59.316;18.092;2022-10-16T02:14:58;12.50;99.90
7427;DHT22;3755;59.316;18.092;2022-10-16T02:17:26;12.50;99.90
7427;DHT22;3755;59.316;18.092;2022-10-16T02:19:55;12.50;99.90
7427;DHT22;3755;59.316;18.092;2022-10-16T02:22:27;12.50;99.90
7427;DHT22;3755;59.316;18.092;2022-10-16T02:24:58;12.40;99.90
7427;DHT22;3755;59.316;18.092;2022-10-16T02:27:34;12.40;99.90
7427;DHT22;3755;59.316;18.092;2022-10-16T02:30:07;12.50;99.90
7427;DHT22;3755;59.316;18.092;2022-10-16T02:32:39;12.50;99.90
7427;DHT22;3755;59.316;18.092;2022-10-16T02:35:08;12.50;99.90
7427;DHT22;3755;59.316;18.092;2022-10-16T02:37:36;12.50;99.90
7427;DHT22;3755;59.316;18.092;2022-10-16T02:40:05;12.50;99.90
7427;DHT22;3755;59.316;18.092;2022-10-16T02:42:36;12.50;99.90
7427;DHT22;3755;59.316;18.092;2022-10-16T02:45:04;12.50;99.90
7427;DHT22;3755;59.316;18.092;2022-10-16T02:47:31;12.60;99.90
7427;DHT22;3755;59.316;18.092;2022-10-16T02:49:58;12.60;99.90
7427;DHT22;3755;59.316;18.092;2022-10-16T02:52:26;12.60;99.90
7427;DHT22;3755;59.316;18.092;2022-10-16T02:54:54;12.60;99.90
7427;DHT22;3755;59.316;18.092;2022-10-16T02:57:21;12.60;99.90
7427;DHT22;3755;59.316;18.092;2022-10-16T02:59:50;12.60;99.90
7427;DHT22;3755;59.316;18.092;2022-10-16T03:02:17;12.60;99.90
7427;DHT22;3755;59.316;18.092;2022-10-16T03:04:44;12.60;99.90
7427;DHT22;3755;59.316;18.092;2022-10-16T03:07:11;12.60;99.90
7427;DHT22;3755;59.316;18.092;2022-10-16T03:09:38;12.60;99.90
7427;DHT22;3755;59.316;18.092;2022-10-16T03:12:06;12.60;99.90
7427;DHT22;3755;59.316;18.092;2022-10-16T03:14:33;12.60;99.90
7427;DHT22;3755;59.316;18.092;2022-10-16T03:17:01;12.60;99.90
7427;DHT22;3755;59.316;18.092;2022-10-16T03:19:28;12.60;99.90
7427;DHT22;3755;59.316;18.092;2022-10-16T03:21:55;12.70;99.90
7427;DHT22;3755;59.316;18.092;2022-10-16T03:24:22;12.60;99.90
7427;DHT22;3755;59.316;18.092;2022-10-16T03:26:49;12.60;99.90
7427;DHT22;3755;59.316;18.092;2022-10-16T03:29:16;12.60;99.90
7427;DHT22;3755;59.316;18.092;2022-10-16T03:31:43;12.50;99.90
7427;DHT22;3755;59.316;18.092;2022-10-16T03:34:12;12.50;99.90
7427;DHT22;3755;59.316;18.092;2022-10-16T03:36:39;12.50;99.90
7427;DHT22;3755;59.316;18.092;2022-10-16T03:39:06;12.50;99.90
7427;DHT22;3755;59.316;18.092;2022-10-16T03:41:33;12.50;99.90
7427;DHT22;3755;59.316;18.092;2022-10-16T03:44:00;12.60;99.90
7427;DHT22;3755;59.316;18.092;2022-10-16T03:46:27;12.50;99.90
7427;DHT22;3755;59.316;18.092;2022-10-16T03:48:54;12.50;99.90
7427;DHT22;3755;59.316;18.092;2022-10-16T03:51:22;12.40;99.90
7427;DHT22;3755;59.316;18.092;2022-10-16T03:53:49;12.40;99.90
7427;DHT22;3755;59.316;18.092;2022-10-16T03:56:16;12.30;99.90
7427;DHT22;3755;59.316;18.092;2022-10-16T03:58:43;12.30;99.90
7427;DHT22;3755;59.316;18.092;2022-10-16T04:01:11;12.30;99.90
7427;DHT22;3755;59.316;18.092;2022-10-16T04:03:37;12.30;99.90
7427;DHT22;3755;59.316;18.092;2022-10-16T04:06:05;12.20;99.90
7427;DHT22;3755;59.316;18.092;2022-10-16T04:08:33;12.20;99.90
7427;DHT22;3755;59.316;18.092;2022-10-16T04:11:02;12.20;99.90
7427;DHT22;3755;59.316;18.092;2022-10-16T04:13:29;12.20;99.90
7427;DHT22;3755;59.316;18.092;2022-10-16T04:15:56;12.10;99.90
7427;DHT22;3755;59.316;18.092;2022-10-16T04:18:23;12.10;99.90
7427;DHT22;3755;59.316;18.092;2022-10-16T04:20:52;12.10;99.90
7427;DHT22;3755;59.316;18.092;2022-10-16T04:23:19;12.10;99.90
7427;DHT22;3755;59.316;18.092;2022-10-16T04:25:50;12.00;99.90
7427;DHT22;3755;59.316;18.092;2022-10-16T04:28:17;12.00;99.90
7427;DHT22;3755;59.316;18.092;2022-10-16T04:30:44;12.00;99.90
7427;DHT22;3755;59.316;18.092;2022-10-16T04:33:11;12.00;99.90
7427;DHT22;3755;59.316;18.092;2022-10-16T04:35:38;12.00;99.90
7427;DHT22;3755;59.316;18.092;2022-10-16T04:38:05;12.00;99.90
7427;DHT22;3755;59.316;18.092;2022-10-16T04:40:32;12.00;99.90
7427;DHT22;3755;59.316;18.092;2022-10-16T04:43:03;12.00;99.90
7427;DHT22;3755;59.316;18.092;2022-10-16T04:45:30;12.00;99.90
7427;DHT22;3755;59.316;18.092;2022-10-16T04:47:58;12.00;99.90
7427;DHT22;3755;59.316;18.092;2022-10-16T04:50:25;12.00;99.90
7427;DHT22;3755;59.316;18.092;2022-10-16T04:52:53;11.90;99.90
7427;DHT22;3755;59.316;18.092;2022-10-16T04:55:20;11.90;99.90
7427;DHT22;3755;59.316;18.092;2022-10-16T04:57:47;11.90;99.90
7427;DHT22;3755;59.316;18.092;2022-10-16T05:00:15;11.90;99.90
7427;DHT22;3755;59.316;18.092;2022-10-16T05:02:43;11.90;99.90
7427;DHT22;3755;59.316;18.092;2022-10-16T05:05:10;11.90;99.90
7427;DHT22;3755;59.316;18.092;2022-10-16T05:07:37;11.90;99.90
7427;DHT22;3755;59.316;18.092;2022-10-16T05:10:05;11.80;99.90
7427;DHT22;3755;59.316;18.092;2022-10-16T05:12:32;11.80;99.90
7427;DHT22;3755;59.316;18.092;2022-10-16T05:14:59;11.80;99.90
7427;DHT22;3755;59.316;18.092;2022-10-16T05:17:28;11.80;99.90
7427;DHT22;3755;59.316;18.092;2022-10-16T05:19:55;11.80;99.90
7427;DHT22;3755;59.316;18.092;2022-10-16T05:22:22;11.80;99.90
7427;DHT22;3755;59.316;18.092;2022-10-16T05:24:49;11.80;99.90
7427;DHT22;3755;59.316;18.092;2022-10-16T05:27:16;11.80;99.90
7427;DHT22;3755;59.316;18.092;2022-10-16T05:29:45;11.80;99.90
7427;DHT22;3755;59.316;18.092;2022-10-16T05:32:13;11.80;99.90
7427;DHT22;3755;59.316;18.092;2022-10-16T05:34:41;11.90;99.90
7427;DHT22;3755;59.316;18.092;2022-10-16T05:37:09;11.80;99.90
7427;DHT22;3755;59.316;18.092;2022-10-16T05:39:37;11.80;99.90
7427;DHT22;3755;59.316;18.092;2022-10-16T05:42:04;11.80;99.90
7427;DHT22;3755;59.316;18.092;2022-10-16T05:44:31;11.90;99.90
7427;DHT22;3755;59.316;18.092;2022-10-16T05:46:58;11.90;99.90
7427;DHT22;3755;59.316;18.092;2022-10-16T05:49:26;11.90;99.90
7427;DHT22;3755;59.316;18.092;2022-10-16T05:51:59;11.90;99.90
7427;DHT22;3755;59.316;18.092;2022-10-16T05:54:28;12.00;99.90
7427;DHT22;3755;59.316;18.092;2022-10-16T05:56:55;12.00;99.90
7427;DHT22;3755;59.316;18.092;2022-10-16T05:59:22;12.00;99.90
7427;DHT22;3755;59.316;18.092;2022-10-16T06:01:49;12.00;99.90
7427;DHT22;3755;59.316;18.092;2022-10-16T06:04:16;12.00;99.90
7427;DHT22;3755;59.316;18.092;2022-10-16T06:06:43;12.00;99.90
7427;DHT22;3755;59.316;18.092;2022-10-16T06:09:12;12.10;99.90
7427;DHT22;3755;59.316;18.092;2022-10-16T06:11:39;12.10;99.90
7427;DHT22;3755;59.316;18.092;2022-10-16T06:14:08;12.10;99.90
7427;DHT22;3755;59.316;18.092;2022-10-16T06:16:36;12.10;99.90
7427;DHT22;3755;59.316;18.092;2022-10-16T06:19:05;12.10;99.90
7427;DHT22;3755;59.316;18.092;2022-10-16T06:21:34;12.10;99.90
7427;DHT22;3755;59.316;18.092;2022-10-16T06:24:01;12.20;99.90
7427;DHT22;3755;59.316;18.092;2022-10-16T06:26:31;12.20;99.90
7427;DHT22;3755;59.316;18.092;2022-10-16T06:29:01;12.20;99.90
7427;DHT22;3755;59.316;18.092;2022-10-16T06:31:29;12.20;99.90
7427;DHT22;3755;59.316;18.092;2022-10-16T06:33:59;12.30;99.90
7427;DHT22;3755;59.316;18.092;2022-10-16T06:36:26;12.30;99.90
7427;DHT22;3755;59.316;18.092;2022-10-16T06:38:53;12.40;99.90
7427;DHT22;3755;59.316;18.092;2022-10-16T06:41:22;12.40;99.90
7427;DHT22;3755;59.316;18.092;2022-10-16T06:43:51;12.50;99.90
7427;DHT22;3755;59.316;18.092;2022-10-16T06:46:20;12.50;99.90
7427;DHT22;3755;59.316;18.092;2022-10-16T06:48:48;12.50;99.90
7427;DHT22;3755;59.316;18.092;2022-10-16T06:51:16;12.50;99.90
7427;DHT22;3755;59.316;18.092;2022-10-16T06:53:45;12.50;99.90
7427;DHT22;3755;59.316;18.092;2022-10-16T06:56:16;12.60;99.90
7427;DHT22;3755;59.316;18.092;2022-10-16T06:58:47;12.60;99.90
7427;DHT22;3755;59.316;18.092;2022-10-16T07:01:17;12.60;99.90
7427;DHT22;3755;59.316;18.092;2022-10-16T07:03:45;12.70;99.90
7427;DHT22;3755;59.316;18.092;2022-10-16T07:06:14;12.70;99.90
7427;DHT22;3755;59.316;18.092;2022-10-16T07:08:43;12.70;99.90
7427;DHT22;3755;59.316;18.092;2022-10-16T07:11:12;12.70;99.90
7427;DHT22;3755;59.316;18.092;2022-10-16T07:13:41;12.80;99.90
7427;DHT22;3755;59.316;18.092;2022-10-16T07:16:10;12.80;99.90
7427;DHT22;3755;59.316;18.092;2022-10-16T07:18:39;12.80;99.90
7427;DHT22;3755;59.316;18.092;2022-10-16T07:21:09;12.90;99.90
7427;DHT22;3755;59.316;18.092;2022-10-16T07:23:37;12.90;99.90
7427;DHT22;3755;59.316;18.092;2022-10-16T07:26:05;12.90;99.90
7427;DHT22;3755;59.316;18.092;2022-10-16T07:28:35;13.00;99.90
7427;DHT22;3755;59.316;18.092;2022-10-16T07:31:03;13.00;99.90
7427;DHT22;3755;59.316;18.092;2022-10-16T07:33:32;13.00;99.90
7427;DHT22;3755;59.316;18.092;2022-10-16T07:36:01;13.00;99.90
7427;DHT22;3755;59.316;18.092;2022-10-16T07:38:28;13.00;99.90
7427;DHT22;3755;59.316;18.092;2022-10-16T07:40:57;13.10;99.90
7427;DHT22;3755;59.316;18.092;2022-10-16T07:43:24;13.10;99.90
7427;DHT22;3755;59.316;18.092;2022-10-16T07:45:52;13.10;99.90
7427;DHT22;3755;59.316;18.092;2022-10-16T07:48:20;13.10;99.90
7427;DHT22;3755;59.316;18.092;2022-10-16T07:50:47;13.10;99.90
7427;DHT22;3755;59.316;18.092;2022-10-16T07:53:16;13.20;99.90
7427;DHT22;3755;59.316;18.092;2022-10-16T07:55:43;13.10;99.90
7427;DHT22;3755;59.316;18.092;2022-10-16T07:58:10;13.10;99.90
7427;DHT22;3755;59.316;18.092;2022-10-16T08:00:40;13.10;99.90
7427;DHT22;3755;59.316;18.092;2022-10-16T08:03:08;13.10;99.90
7427;DHT22;3755;59.316;18.092;2022-10-16T08:05:35;13.10;99.90
7427;DHT22;3755;59.316;18.092;2022-10-16T08:08:02;13.20;99.90
7427;DHT22;3755;59.316;18.092;2022-10-16T08:10:31;13.20;99.90
7427;DHT22;3755;59.316;18.092;2022-10-16T08:12:58;13.30;99.90
7427;DHT22;3755;59.316;18.092;2022-10-16T08:15:26;13.20;99.90
7427;DHT22;3755;59.316;18.092;2022-10-16T08:17:55;13.20;99.90
7427;DHT22;3755;59.316;18.092;2022-10-16T08:20:23;13.30;99.90
7427;DHT22;3755;59.316;18.092;2022-10-16T08:22:50;13.30;99.90
7427;DHT22;3755;59.316;18.092;2022-10-16T08:25:18;13.40;99.90
7427;DHT22;3755;59.316;18.092;2022-10-16T08:27:48;13.30;99.90
7427;DHT22;3755;59.316;18.092;2022-10-16T08:30:16;13.40;99.90
7427;DHT22;3755;59.316;18.092;2022-10-16T08:32:43;13.40;99.90
7427;DHT22;3755;59.316;18.092;2022-10-16T08:35:10;13.40;99.90
7427;DHT22;3755;59.316;18.092;2022-10-16T08:37:38;13.40;99.90
7427;DHT22;3755;59.316;18.092;2022-10-16T08:40:07;13.40;99.90
7427;DHT22;3755;59.316;18.092;2022-10-16T08:42:53;13.40;99.90
7427;DHT22;3755;59.316;18.092;2022-10-16T08:45:35;13.40;99.90
7427;DHT22;3755;59.316;18.092;2022-10-16T08:48:11;13.50;99.90
7427;DHT22;3755;59.316;18.092;2022-10-16T08:50:42;13.40;99.90
7427;DHT22;3755;59.316;18.092;2022-10-16T08:53:15;13.40;99.90
7427;DHT22;3755;59.316;18.092;2022-10-16T08:55:46;13.50;99.90
7427;DHT22;3755;59.316;18.092;2022-10-16T08:58:18;13.60;99.90
7427;DHT22;3755;59.316;18.092;2022-10-16T09:00:48;13.60;99.90
7427;DHT22;3755;59.316;18.092;2022-10-16T09:03:42;13.60;99.90
7427;DHT22;3755;59.316;18.092;2022-10-16T09:06:28;13.60;99.90
7427;DHT22;3755;59.316;18.092;2022-10-16T09:09:09;13.70;99.90
7427;DHT22;3755;59.316;18.092;2022-10-16T09:11:48;13.70;99.90
7427;DHT22;3755;59.316;18.092;2022-10-16T09:14:33;13.70;99.90
7427;DHT22;3755;59.316;18.092;2022-10-16T09:17:17;13.70;99.90
7427;DHT22;3755;59.316;18.092;2022-10-16T09:19:53;13.80;99.90
7427;DHT22;3755;59.316;18.092;2022-10-16T09:22:27;13.80;99.90
7427;DHT22;3755;59.316;18.092;2022-10-16T09:25:00;13.80;99.90
7427;DHT22;3755;59.316;18.092;2022-10-16T09:27:28;13.90;99.90
7427;DHT22;3755;59.316;18.092;2022-10-16T09:29:58;13.90;99.90
7427;DHT22;3755;59.316;18.092;2022-10-16T09:32:26;14.10;99.90
7427;DHT22;3755;59.316;18.092;2022-10-16T09:34:55;14.10;99.90
7427;DHT22;3755;59.316;18.092;2022-10-16T09:37:25;14.20;99.90
7427;DHT22;3755;59.316;18.092;2022-10-16T09:39:54;14.20;99.90
7427;DHT22;3755;59.316;18.092;2022-10-16T09:42:26;14.10;99.90
7427;DHT22;3755;59.316;18.092;2022-10-16T09:44:58;14.00;99.90
7427;DHT22;3755;59.316;18.092;2022-10-16T09:47:26;14.00;99.90
7427;DHT22;3755;59.316;18.092;2022-10-16T09:49:56;14.00;99.90
7427;DHT22;3755;59.316;18.092;2022-10-16T09:52:25;14.10;99.90
7427;DHT22;3755;59.316;18.092;2022-10-16T09:54:56;14.10;99.90
7427;DHT22;3755;59.316;18.092;2022-10-16T09:57:23;14.10;99.90
7427;DHT22;3755;59.316;18.092;2022-10-16T09:59:52;14.10;99.90
7427;DHT22;3755;59.316;18.092;2022-10-16T10:02:29;14.00;99.90
7427;DHT22;3755;59.316;18.092;2022-10-16T10:04:57;14.00;99.90
7427;DHT22;3755;59.316;18.092;2022-10-16T10:07:26;13.90;99.90
7427;DHT22;3755;59.316;18.092;2022-10-16T10:09:55;13.90;99.90
7427;DHT22;3755;59.316;18.092;2022-10-16T10:12:24;13.90;99.90
7427;DHT22;3755;59.316;18.092;2022-10-16T10:14:53;13.90;99.90
7427;DHT22;3755;59.316;18.092;2022-10-16T10:17:26;14.00;99.90
7427;DHT22;3755;59.316;18.092;2022-10-16T10:19:54;14.00;99.90
7427;DHT22;3755;59.316;18.092;2022-10-16T10:22:41;14.10;99.90
7427;DHT22;3755;59.316;18.092;2022-10-16T10:30:56;14.20;99.90
7427;DHT22;3755;59.316;18.092;2022-10-16T10:33:34;14.30;99.90
7427;DHT22;3755;59.316;18.092;2022-10-16T10:36:28;14.30;99.90
7427;DHT22;3755;59.316;18.092;2022-10-16T10:38:59;14.20;99.90
7427;DHT22;3755;59.316;18.092;2022-10-16T10:44:52;14.20;99.90
7427;DHT22;3755;59.316;18.092;2022-10-16T10:47:27;14.40;99.90
7427;DHT22;3755;59.316;18.092;2022-10-16T10:50:07;14.30;99.90
7427;DHT22;3755;59.316;18.092;2022-10-16T10:52:53;14.40;99.90
7427;DHT22;3755;59.316;18.092;2022-10-16T10:55:27;14.50;99.90
7427;DHT22;3755;59.316;18.092;2022-10-16T10:58:29;14.60;99.90
7427;DHT22;3755;59.316;18.092;2022-10-16T11:01:04;14.80;99.90
7427;DHT22;3755;59.316;18.092;2022-10-16T11:03:43;14.80;99.90
7427;DHT22;3755;59.316;18.092;2022-10-16T11:06:16;14.80;99.90
7427;DHT22;3755;59.316;18.092;2022-10-16T11:08:49;14.80;99.90
7427;DHT22;3755;59.316;18.092;2022-10-16T11:11:20;14.90;99.90
7427;DHT22;3755;59.316;18.092;2022-10-16T11:13:55;14.70;99.90
7427;DHT22;3755;59.316;18.092;2022-10-16T11:16:34;14.70;99.90
7427;DHT22;3755;59.316;18.092;2022-10-16T11:19:08;14.70;99.90
7427;DHT22;3755;59.316;18.092;2022-10-16T11:21:44;14.60;99.90
7427;DHT22;3755;59.316;18.092;2022-10-16T11:24:19;14.70;99.90
7427;DHT22;3755;59.316;18.092;2022-10-16T11:26:48;14.70;99.90
7427;DHT22;3755;59.316;18.092;2022-10-16T11:29:21;14.80;99.90
7427;DHT22;3755;59.316;18.092;2022-10-16T11:31:53;15.00;99.90
7427;DHT22;3755;59.316;18.092;2022-10-16T11:34:25;15.20;99.90
7427;DHT22;3755;59.316;18.092;2022-10-16T11:37:05;15.00;99.90
7427;DHT22;3755;59.316;18.092;2022-10-16T11:39:35;14.90;99.90
7427;DHT22;3755;59.316;18.092;2022-10-16T11:42:09;14.80;99.90
7427;DHT22;3755;59.316;18.092;2022-10-16T11:44:53;14.90;99.90
7427;DHT22;3755;59.316;18.092;2022-10-16T11:47:27;14.80;99.90
7427;DHT22;3755;59.316;18.092;2022-10-16T11:49:59;14.80;99.90
7427;DHT22;3755;59.316;18.092;2022-10-16T11:52:35;14.70;99.90
7427;DHT22;3755;59.316;18.092;2022-10-16T11:55:14;14.60;99.90
7427;DHT22;3755;59.316;18.092;2022-10-16T11:57:45;14.60;99.90
7427;DHT22;3755;59.316;18.092;2022-10-16T12:00:22;14.60;99.90
7427;DHT22;3755;59.316;18.092;2022-10-16T12:02:57;14.60;99.90
7427;DHT22;3755;59.316;18.092;2022-10-16T12:05:32;14.70;99.90
7427;DHT22;3755;59.316;18.092;2022-10-16T12:08:08;14.70;99.90
7427;DHT22;3755;59.316;18.092;2022-10-16T12:10:37;14.80;99.90
7427;DHT22;3755;59.316;18.092;2022-10-16T12:13:32;14.90;99.90
7427;DHT22;3755;59.316;18.092;2022-10-16T12:16:18;14.90;99.90
7427;DHT22;3755;59.316;18.092;2022-10-16T12:18:47;14.90;99.90
7427;DHT22;3755;59.316;18.092;2022-10-16T12:21:16;14.90;99.90
7427;DHT22;3755;59.316;18.092;2022-10-16T12:23:55;15.00;99.90
7427;DHT22;3755;59.316;18.092;2022-10-16T12:26:25;14.90;99.90
7427;DHT22;3755;59.316;18.092;2022-10-16T12:28:54;15.10;99.90
7427;DHT22;3755;59.316;18.092;2022-10-16T12:31:43;15.10;99.90
7427;DHT22;3755;59.316;18.092;2022-10-16T12:34:21;15.20;99.90
7427;DHT22;3755;59.316;18.092;2022-10-16T12:40:22;15.00;99.90
7427;DHT22;3755;59.316;18.092;2022-10-16T12:43:40;14.90;99.90
7427;DHT22;3755;59.316;18.092;2022-10-16T12:49:29;14.90;99.90
7427;DHT22;3755;59.316;18.092;2022-10-16T12:52:00;14.70;99.90
7427;DHT22;3755;59.316;18.092;2022-10-16T12:54:29;14.60;99.90
7427;DHT22;3755;59.316;18.092;2022-10-16T12:57:10;14.60;99.90
7427;DHT22;3755;59.316;18.092;2022-10-16T12:59:50;14.60;99.90
7427;DHT22;3755;59.316;18.092;2022-10-16T13:02:40;14.60;99.90
7427;DHT22;3755;59.316;18.092;2022-10-16T13:05:25;14.70;99.90
7427;DHT22;3755;59.316;18.092;2022-10-16T13:08:11;14.70;99.90
7427;DHT22;3755;59.316;18.092;2022-10-16T13:10:47;14.60;99.90
7427;DHT22;3755;59.316;18.092;2022-10-16T13:13:45;14.60;99.90
7427;DHT22;3755;59.316;18.092;2022-10-16T13:16:21;14.50;99.90
7427;DHT22;3755;59.316;18.092;2022-10-16T13:18:58;14.50;99.90
7427;DHT22;3755;59.316;18.092;2022-10-16T13:21:35;14.60;99.90
7427;DHT22;3755;59.316;18.092;2022-10-16T13:24:16;14.70;99.90
7427;DHT22;3755;59.316;18.092;2022-10-16T13:26:49;14.80;99.90
7427;DHT22;3755;59.316;18.092;2022-10-16T13:29:23;14.80;99.90
7427;DHT22;3755;59.316;18.092;2022-10-16T13:31:51;14.80;99.90
7427;DHT22;3755;59.316;18.092;2022-10-16T13:34:21;14.90;99.90
7427;DHT22;3755;59.316;18.092;2022-10-16T13:36:52;14.80;99.90
7427;DHT22;3755;59.316;18.092;2022-10-16T13:39:22;15.00;99.90
7427;DHT22;3755;59.316;18.092;2022-10-16T13:42:05;15.10;99.90
7427;DHT22;3755;59.316;18.092;2022-10-16T13:44:40;15.00;99.90
7427;DHT22;3755;59.316;18.092;2022-10-16T13:47:23;15.00;99.90
7427;DHT22;3755;59.316;18.092;2022-10-16T13:50:09;14.80;99.90
7427;DHT22;3755;59.316;18.092;2022-10-16T13:52:38;14.80;99.90
7427;DHT22;3755;59.316;18.092;2022-10-16T13:55:11;14.90;99.90
7427;DHT22;3755;59.316;18.092;2022-10-16T13:57:42;14.80;99.90
7427;DHT22;3755;59.316;18.092;2022-10-16T14:00:25;14.70;99.90
7427;DHT22;3755;59.316;18.092;2022-10-16T14:02:58;14.90;99.90
7427;DHT22;3755;59.316;18.092;2022-10-16T14:05:27;15.30;99.90
7427;DHT22;3755;59.316;18.092;2022-10-16T14:07:55;15.60;99.90
7427;DHT22;3755;59.316;18.092;2022-10-16T14:10:26;15.40;99.90
7427;DHT22;3755;59.316;18.092;2022-10-16T14:12:57;15.40;99.90
7427;DHT22;3755;59.316;18.092;2022-10-16T14:15:27;15.60;99.90
7427;DHT22;3755;59.316;18.092;2022-10-16T14:17:58;15.50;99.90
7427;DHT22;3755;59.316;18.092;2022-10-16T14:20:33;15.00;99.90
7427;DHT22;3755;59.316;18.092;2022-10-16T14:23:04;14.80;99.90
7427;DHT22;3755;59.316;18.092;2022-10-16T14:25:32;14.60;99.90
7427;DHT22;3755;59.316;18.092;2022-10-16T14:28:02;14.50;99.90
7427;DHT22;3755;59.316;18.092;2022-10-16T14:30:32;14.40;99.90
7427;DHT22;3755;59.316;18.092;2022-10-16T14:33:01;14.20;99.90
7427;DHT22;3755;59.316;18.092;2022-10-16T14:35:32;14.10;99.90
7427;DHT22;3755;59.316;18.092;2022-10-16T14:38:01;14.00;99.90
7427;DHT22;3755;59.316;18.092;2022-10-16T14:40:32;13.90;99.90
7427;DHT22;3755;59.316;18.092;2022-10-16T14:43:00;13.80;99.90
7427;DHT22;3755;59.316;18.092;2022-10-16T14:45:32;13.80;99.90
7427;DHT22;3755;59.316;18.092;2022-10-16T14:48:02;13.70;99.90
7427;DHT22;3755;59.316;18.092;2022-10-16T14:50:30;13.70;99.90
7427;DHT22;3755;59.316;18.092;2022-10-16T14:52:58;13.60;99.90
7427;DHT22;3755;59.316;18.092;2022-10-16T14:55:26;13.60;99.90
7427;DHT22;3755;59.316;18.092;2022-10-16T14:57:53;13.60;99.90
7427;DHT22;3755;59.316;18.092;2022-10-16T15:00:22;13.60;99.90
7427;DHT22;3755;59.316;18.092;2022-10-16T15:02:51;13.50;99.90
7427;DHT22;3755;59.316;18.092;2022-10-16T15:05:20;13.50;99.90
7427;DHT22;3755;59.316;18.092;2022-10-16T15:07:49;13.50;99.90
7427;DHT22;3755;59.316;18.092;2022-10-16T15:10:25;13.50;99.90
7427;DHT22;3755;59.316;18.092;2022-10-16T15:12:54;13.50;99.90
7427;DHT22;3755;59.316;18.092;2022-10-16T15:15:33;13.50;99.90
7427;DHT22;3755;59.316;18.092;2022-10-16T15:18:02;13.50;99.90
7427;DHT22;3755;59.316;18.092;2022-10-16T15:20:33;13.50;99.90
7427;DHT22;3755;59.316;18.092;2022-10-16T15:23:02;13.50;99.90
7427;DHT22;3755;59.316;18.092;2022-10-16T15:25:38;13.50;99.90
7427;DHT22;3755;59.316;18.092;2022-10-16T15:28:06;13.40;99.90
7427;DHT22;3755;59.316;18.092;2022-10-16T15:30:34;13.40;99.90
7427;DHT22;3755;59.316;18.092;2022-10-16T15:33:03;12.70;99.90
7427;DHT22;3755;59.316;18.092;2022-10-16T15:35:31;11.60;99.90
7427;DHT22;3755;59.316;18.092;2022-10-16T15:37:58;11.10;99.90
7427;DHT22;3755;59.316;18.092;2022-10-16T15:40:25;10.90;99.90
7427;DHT22;3755;59.316;18.092;2022-10-16T15:42:52;10.70;99.90
7427;DHT22;3755;59.316;18.092;2022-10-16T15:45:20;10.60;99.90
7427;DHT22;3755;59.316;18.092;2022-10-16T15:47:47;10.50;99.90
7427;DHT22;3755;59.316;18.092;2022-10-16T15:50:16;10.30;99.90
7427;DHT22;3755;59.316;18.092;2022-10-16T15:52:43;10.20;99.90
7427;DHT22;3755;59.316;18.092;2022-10-16T15:55:13;10.20;99.90
7427;DHT22;3755;59.316;18.092;2022-10-16T15:57:41;10.10;99.90
7427;DHT22;3755;59.316;18.092;2022-10-16T16:00:11;10.10;99.90
7427;DHT22;3755;59.316;18.092;2022-10-16T16:02:40;10.00;99.90
7427;DHT22;3755;59.316;18.092;2022-10-16T16:05:08;10.00;99.90
7427;DHT22;3755;59.316;18.092;2022-10-16T16:07:38;10.00;99.90
7427;DHT22;3755;59.316;18.092;2022-10-16T16:10:07;10.00;99.90
7427;DHT22;3755;59.316;18.092;2022-10-16T16:12:35;10.00;99.90
7427;DHT22;3755;59.316;18.092;2022-10-16T16:15:03;10.00;99.90
7427;DHT22;3755;59.316;18.092;2022-10-16T16:17:30;9.90;99.90
7427;DHT22;3755;59.316;18.092;2022-10-16T16:19:57;10.00;99.90
7427;DHT22;3755;59.316;18.092;2022-10-16T16:22:25;10.00;99.90
7427;DHT22;3755;59.316;18.092;2022-10-16T16:24:53;10.00;99.90